TimePDT,TemperatureF,Dew PointF,Humidity,Sea Level PressureIn,VisibilityMPH,Wind Direction,Wind SpeedMPH,Gust SpeedMPH,PrecipitationIn,Events,Conditions,WindDirDegrees,DateUTC
12:53 AM,37.0,33.1,86,30.03,10.0,Calm,Calm,-,N/A,,Overcast,0,2012-05-27 07:53:00
1:53 AM,34.0,30.9,89,30.04,10.0,Calm,Calm,-,N/A,,Scattered Clouds,0,2012-05-27 08:53:00
2:53 AM,30.9,28.9,92,30.06,10.0,Calm,Calm,-,N/A,,Clear,0,2012-05-27 09:53:00
3:53 AM,30.0,28.0,92,30.09,10.0,Calm,Calm,-,N/A,,Clear,0,2012-05-27 10:53:00
4:53 AM,28.9,27.0,92,30.09,10.0,Calm,Calm,-,N/A,,Clear,0,2012-05-27 11:53:00
5:53 AM,28.0,26.1,92,30.11,10.0,Calm,Calm,-,N/A,,Clear,0,2012-05-27 12:53:00
6:53 AM,30.9,28.9,92,30.12,10.0,Calm,Calm,-,N/A,,Clear,0,2012-05-27 13:53:00
7:53 AM,37.9,30.9,76,30.10,10.0,Calm,Calm,-,N/A,,Clear,0,2012-05-27 14:53:00
8:53 AM,44.1,28.0,53,30.08,10.0,Calm,Calm,-,N/A,,Clear,0,2012-05-27 15:53:00
9:53 AM,48.0,25.0,41,30.07,10.0,ESE,3.5,-,N/A,,Clear,120,2012-05-27 16:53:00
10:53 AM,52.0,26.1,37,30.07,10.0,SSW,8.1,-,N/A,,Mostly Cloudy,200,2012-05-27 17:53:00
11:53 AM,50.0,25.0,38,30.08,10.0,South,6.9,-,N/A,,Mostly Cloudy,180,2012-05-27 18:53:00
12:53 PM,50.0,28.9,44,30.09,10.0,NE,5.8,-,N/A,,Overcast,40,2012-05-27 19:53:00
1:53 PM,52.0,27.0,38,30.09,10.0,Variable,6.9,-,N/A,,Overcast,0,2012-05-27 20:53:00
2:53 PM,55.9,28.0,34,30.08,10.0,South,9.2,-,N/A,,Scattered Clouds,180,2012-05-27 21:53:00
3:53 PM,55.0,28.0,35,30.08,10.0,South,5.8,-,N/A,,Scattered Clouds,190,2012-05-27 22:53:00
4:53 PM,55.0,32.0,42,30.09,10.0,South,8.1,-,N/A,,Partly Cloudy,190,2012-05-27 23:53:00
5:53 PM,53.1,32.0,45,30.09,10.0,SSW,8.1,-,N/A,,Clear,200,2012-05-28 00:53:00
6:53 PM,52.0,33.1,49,30.08,10.0,SSW,5.8,-,N/A,,Clear,210,2012-05-28 01:53:00
7:53 PM,46.9,36.0,66,30.09,10.0,SW,3.5,-,N/A,,Clear,220,2012-05-28 02:53:00
8:53 PM,44.1,37.0,76,30.08,10.0,Calm,Calm,-,N/A,,Clear,0,2012-05-28 03:53:00
9:53 PM,39.9,35.1,83,30.09,10.0,Calm,Calm,-,N/A,,Clear,0,2012-05-28 04:53:00
10:53 PM,37.9,34.0,86,30.09,10.0,Calm,Calm,-,N/A,,Clear,0,2012-05-28 05:53:00
11:53 PM,35.1,32.0,89,30.09,10.0,Calm,Calm,-,N/A,,Clear,0,2012-05-28 06:53:00